BTK6189 WAYY-WAMM
Flight info
| Callsign | BTK6189 |
|---|---|
| Flight time | N/A |
| Altitude | 36000 |
| Route | ANROL W67 SOSOK |
| Aircraft | A320/M-SDE3FGHIRWY/LB1 |
Departure
| Time | N/A |
|---|---|
| Airport | Mozes Kilangin Airport (WAYY) |
Arrival
| Time | 2026-04-30 06:32 |
|---|---|
| Airport | Sam Ratulangi International Airport (WAMM) |
| Time | Latitude | Longitude | Altitude | Speed | Heading |
|---|---|---|---|---|---|
| 2026-04-30 05:03 | -3.31396 | 133.43346 | 35858 ft | 459 kts | 323° |
| 2026-04-30 05:04 | -3.28896 | 133.41354 | 35862 ft | 459 kts | 323° |
| 2026-04-30 05:04 | -3.23887 | 133.37368 | 35853 ft | 460 kts | 323° |
| 2026-04-30 05:05 | -3.18886 | 133.33385 | 35850 ft | 461 kts | 323° |
| 2026-04-30 05:05 | -3.13858 | 133.29386 | 35849 ft | 461 kts | 323° |
| 2026-04-30 05:06 | -3.06297 | 133.23385 | 35853 ft | 463 kts | 323° |
| 2026-04-30 05:06 | -3.01249 | 133.19370 | 35852 ft | 464 kts | 323° |
| 2026-04-30 05:07 | -2.96202 | 133.15350 | 35860 ft | 464 kts | 323° |
| 2026-04-30 05:07 | -2.91153 | 133.11337 | 35867 ft | 464 kts | 323° |
| 2026-04-30 05:08 | -2.86098 | 133.07318 | 35873 ft | 463 kts | 323° |
| 2026-04-30 05:08 | -2.81058 | 133.03309 | 35876 ft | 463 kts | 323° |
| 2026-04-30 05:09 | -2.76043 | 132.99320 | 35877 ft | 463 kts | 323° |
| 2026-04-30 05:09 | -2.71003 | 132.95316 | 35884 ft | 463 kts | 323° |
| 2026-04-30 05:10 | -2.65963 | 132.91324 | 35879 ft | 462 kts | 323° |
| 2026-04-30 05:10 | -2.60925 | 132.87322 | 35878 ft | 461 kts | 323° |
| 2026-04-30 05:11 | -2.55914 | 132.83326 | 35875 ft | 461 kts | 323° |
| 2026-04-30 05:11 | -2.50890 | 132.79332 | 35871 ft | 461 kts | 323° |
| 2026-04-30 05:12 | -2.45861 | 132.75343 | 35866 ft | 461 kts | 323° |
| 2026-04-30 05:12 | -2.40840 | 132.71353 | 35866 ft | 461 kts | 323° |
| 2026-04-30 05:13 | -2.35800 | 132.67355 | 35865 ft | 462 kts | 323° |
| 2026-04-30 05:13 | -2.30763 | 132.63358 | 35866 ft | 462 kts | 323° |
| 2026-04-30 05:14 | -2.25860 | 132.59321 | 35867 ft | 463 kts | 317° |
| 2026-04-30 05:14 | -2.21211 | 132.54855 | 35867 ft | 463 kts | 317° |
| 2026-04-30 05:15 | -2.16588 | 132.50432 | 35868 ft | 463 kts | 317° |
| 2026-04-30 05:15 | -2.11925 | 132.45982 | 35870 ft | 463 kts | 317° |
| 2026-04-30 05:16 | -2.07271 | 132.41527 | 35868 ft | 463 kts | 317° |
| 2026-04-30 05:16 | -2.02618 | 132.37071 | 35872 ft | 463 kts | 317° |
| 2026-04-30 05:17 | -1.97963 | 132.32614 | 35871 ft | 463 kts | 317° |
| 2026-04-30 05:17 | -1.93308 | 132.28148 | 35873 ft | 464 kts | 317° |
| 2026-04-30 05:18 | -1.88646 | 132.23680 | 35872 ft | 464 kts | 317° |
| 2026-04-30 05:18 | -1.83979 | 132.19222 | 35870 ft | 464 kts | 317° |
| 2026-04-30 05:19 | -1.79304 | 132.14756 | 35874 ft | 465 kts | 317° |
| 2026-04-30 05:19 | -1.74630 | 132.10281 | 35874 ft | 465 kts | 317° |
| 2026-04-30 05:20 | -1.70749 | 132.06564 | 35876 ft | 466 kts | 317° |
| 2026-04-30 05:20 | -1.65284 | 132.01323 | 35875 ft | 466 kts | 317° |
| 2026-04-30 05:21 | -1.61387 | 131.97598 | 35876 ft | 466 kts | 317° |
| 2026-04-30 05:21 | -1.56702 | 131.93124 | 35878 ft | 466 kts | 317° |
| 2026-04-30 05:22 | -1.51250 | 131.87917 | 35881 ft | 466 kts | 317° |
| 2026-04-30 05:22 | -1.46569 | 131.83437 | 35882 ft | 466 kts | 317° |
| 2026-04-30 05:23 | -1.42666 | 131.79704 | 35881 ft | 466 kts | 317° |
| 2026-04-30 05:23 | -1.37977 | 131.75216 | 35881 ft | 466 kts | 317° |
| 2026-04-30 05:24 | -1.33291 | 131.70729 | 35880 ft | 466 kts | 317° |
| 2026-04-30 05:24 | -1.28615 | 131.66248 | 35880 ft | 466 kts | 317° |
| 2026-04-30 05:25 | -1.23930 | 131.61769 | 35879 ft | 466 kts | 317° |
| 2026-04-30 05:25 | -1.19241 | 131.57293 | 35879 ft | 466 kts | 317° |
| 2026-04-30 05:26 | -1.14553 | 131.52817 | 35880 ft | 466 kts | 317° |
| 2026-04-30 05:26 | -1.09904 | 131.48370 | 35883 ft | 466 kts | 317° |
| 2026-04-30 05:27 | -1.05230 | 131.43892 | 35886 ft | 466 kts | 317° |
| 2026-04-30 05:27 | -1.00543 | 131.39411 | 35888 ft | 465 kts | 317° |
| 2026-04-30 05:28 | -0.95867 | 131.34947 | 35885 ft | 464 kts | 317° |
| 2026-04-30 05:28 | -0.91320 | 131.30384 | 35885 ft | 465 kts | 309° |
| 2026-04-30 05:29 | -0.88135 | 131.24783 | 35881 ft | 465 kts | 290° |
| 2026-04-30 05:29 | -0.85976 | 131.18688 | 35874 ft | 465 kts | 290° |
| 2026-04-30 05:30 | -0.83816 | 131.12640 | 35868 ft | 465 kts | 290° |
| 2026-04-30 05:30 | -0.81644 | 131.06545 | 35871 ft | 465 kts | 290° |
| 2026-04-30 05:31 | -0.79478 | 131.00454 | 35869 ft | 465 kts | 290° |
| 2026-04-30 05:31 | -0.77313 | 130.94355 | 35866 ft | 466 kts | 290° |
| 2026-04-30 05:32 | -0.75141 | 130.88251 | 35875 ft | 466 kts | 290° |
| 2026-04-30 05:32 | -0.72968 | 130.82147 | 35878 ft | 467 kts | 290° |
| 2026-04-30 05:33 | -0.70792 | 130.76039 | 35881 ft | 467 kts | 290° |
| 2026-04-30 05:33 | -0.68618 | 130.69924 | 35885 ft | 467 kts | 290° |
| 2026-04-30 05:34 | -0.66452 | 130.63836 | 35886 ft | 467 kts | 290° |
| 2026-04-30 05:34 | -0.64266 | 130.57687 | 35883 ft | 467 kts | 290° |
| 2026-04-30 05:35 | -0.62109 | 130.51617 | 35886 ft | 467 kts | 290° |
| 2026-04-30 05:35 | -0.59936 | 130.45504 | 35886 ft | 467 kts | 290° |
| 2026-04-30 05:36 | -0.57758 | 130.39394 | 35891 ft | 467 kts | 290° |
| 2026-04-30 05:36 | -0.55580 | 130.33282 | 35894 ft | 467 kts | 290° |
| 2026-04-30 05:37 | -0.53411 | 130.27163 | 35894 ft | 467 kts | 290° |
| 2026-04-30 05:37 | -0.51246 | 130.21054 | 35889 ft | 466 kts | 290° |
| 2026-04-30 05:38 | -0.49077 | 130.14951 | 35893 ft | 466 kts | 290° |
| 2026-04-30 05:38 | -0.46904 | 130.08862 | 35892 ft | 466 kts | 290° |
| 2026-04-30 05:39 | -0.44724 | 130.02757 | 35891 ft | 465 kts | 290° |
| 2026-04-30 05:39 | -0.42557 | 129.96678 | 35890 ft | 465 kts | 290° |
| 2026-04-30 05:40 | -0.40389 | 129.90589 | 35887 ft | 465 kts | 290° |
| 2026-04-30 05:40 | -0.38225 | 129.84496 | 35885 ft | 465 kts | 290° |
| 2026-04-30 05:41 | -0.36061 | 129.78414 | 35887 ft | 465 kts | 290° |
| 2026-04-30 05:41 | -0.33907 | 129.72363 | 35888 ft | 465 kts | 290° |
| 2026-04-30 05:42 | -0.31750 | 129.66286 | 35885 ft | 465 kts | 290° |
| 2026-04-30 05:42 | -0.29582 | 129.60190 | 35882 ft | 465 kts | 290° |
| 2026-04-30 05:43 | -0.27411 | 129.54102 | 35881 ft | 465 kts | 290° |
| 2026-04-30 05:43 | -0.25241 | 129.48008 | 35877 ft | 465 kts | 290° |
| 2026-04-30 05:44 | -0.23074 | 129.41914 | 35874 ft | 465 kts | 290° |
| 2026-04-30 05:44 | -0.20900 | 129.35823 | 35872 ft | 466 kts | 290° |
| 2026-04-30 05:45 | -0.18729 | 129.29724 | 35869 ft | 466 kts | 290° |
| 2026-04-30 05:45 | -0.16561 | 129.23624 | 35866 ft | 466 kts | 290° |
| 2026-04-30 05:46 | -0.14386 | 129.17530 | 35864 ft | 466 kts | 290° |
| 2026-04-30 05:46 | -0.12236 | 129.11424 | 35865 ft | 466 kts | 289° |
| 2026-04-30 05:47 | -0.10119 | 129.05309 | 35864 ft | 466 kts | 289° |
| 2026-04-30 05:47 | -0.08005 | 128.99180 | 35866 ft | 466 kts | 289° |
| 2026-04-30 05:48 | -0.05878 | 128.93054 | 35864 ft | 467 kts | 289° |
| 2026-04-30 05:48 | -0.03759 | 128.86973 | 35866 ft | 467 kts | 289° |
| 2026-04-30 05:49 | -0.01622 | 128.80838 | 35872 ft | 467 kts | 289° |
| 2026-04-30 05:49 | 0.00509 | 128.74713 | 35870 ft | 467 kts | 289° |
| 2026-04-30 05:50 | 0.02658 | 128.68532 | 35873 ft | 467 kts | 289° |
| 2026-04-30 05:50 | 0.04780 | 128.62440 | 35872 ft | 468 kts | 289° |
| 2026-04-30 05:51 | 0.06909 | 128.56310 | 35874 ft | 468 kts | 289° |
| 2026-04-30 05:51 | 0.09047 | 128.50157 | 35874 ft | 468 kts | 289° |
| 2026-04-30 05:52 | 0.11182 | 128.44019 | 35869 ft | 468 kts | 289° |
| 2026-04-30 05:52 | 0.13314 | 128.37870 | 35869 ft | 468 kts | 289° |
| 2026-04-30 05:53 | 0.15451 | 128.31717 | 35868 ft | 469 kts | 289° |
| 2026-04-30 05:53 | 0.17594 | 128.25568 | 35866 ft | 469 kts | 289° |
| 2026-04-30 05:54 | 0.19742 | 128.19405 | 35870 ft | 469 kts | 289° |
| 2026-04-30 05:54 | 0.21887 | 128.13247 | 35868 ft | 469 kts | 289° |
| 2026-04-30 05:55 | 0.24050 | 128.07093 | 35865 ft | 470 kts | 289° |
| 2026-04-30 05:55 | 0.26195 | 128.00933 | 35868 ft | 469 kts | 289° |
| 2026-04-30 05:56 | 0.28328 | 127.94766 | 35872 ft | 469 kts | 289° |
| 2026-04-30 05:56 | 0.30467 | 127.88596 | 35870 ft | 470 kts | 289° |
| 2026-04-30 05:57 | 0.32607 | 127.82431 | 35870 ft | 470 kts | 289° |
| 2026-04-30 05:57 | 0.34751 | 127.76258 | 35871 ft | 470 kts | 289° |
| 2026-04-30 05:58 | 0.36904 | 127.70081 | 35870 ft | 470 kts | 289° |
| 2026-04-30 05:58 | 0.39050 | 127.63912 | 35869 ft | 471 kts | 289° |
| 2026-04-30 05:59 | 0.41200 | 127.57731 | 35871 ft | 471 kts | 289° |
| 2026-04-30 05:59 | 0.43345 | 127.51549 | 35871 ft | 471 kts | 289° |
| 2026-04-30 06:00 | 0.45493 | 127.45370 | 35867 ft | 471 kts | 289° |
| 2026-04-30 06:00 | 0.47640 | 127.39224 | 35861 ft | 471 kts | 289° |
| 2026-04-30 06:01 | 0.49796 | 127.33030 | 35859 ft | 472 kts | 289° |
| 2026-04-30 06:01 | 0.51946 | 127.26825 | 35866 ft | 472 kts | 289° |
| 2026-04-30 06:02 | 0.54099 | 127.20631 | 35865 ft | 472 kts | 289° |
| 2026-04-30 06:02 | 0.56259 | 127.14413 | 35867 ft | 473 kts | 289° |
| 2026-04-30 06:03 | 0.58408 | 127.08210 | 35869 ft | 473 kts | 289° |
| 2026-04-30 06:03 | 0.60567 | 127.02001 | 35866 ft | 473 kts | 289° |
| 2026-04-30 06:04 | 0.62729 | 126.95787 | 35868 ft | 473 kts | 289° |
| 2026-04-30 06:05 | 0.65948 | 126.86507 | 35867 ft | 473 kts | 290° |
| 2026-04-30 06:05 | 0.68111 | 126.80287 | 35866 ft | 474 kts | 290° |
| 2026-04-30 06:06 | 0.70272 | 126.74068 | 35863 ft | 474 kts | 290° |
| 2026-04-30 06:06 | 0.72434 | 126.67858 | 35863 ft | 474 kts | 290° |
| 2026-04-30 06:07 | 0.74599 | 126.61628 | 35868 ft | 474 kts | 290° |
| 2026-04-30 06:07 | 0.76757 | 126.55397 | 35711 ft | 475 kts | 290° |
| 2026-04-30 06:07 | 0.77776 | 126.52221 | 34627 ft | 486 kts | 284° |
| 2026-04-30 06:08 | 0.78491 | 126.48907 | 33938 ft | 486 kts | 282° |
| 2026-04-30 06:08 | 0.79187 | 126.45612 | 33369 ft | 482 kts | 282° |
| 2026-04-30 06:08 | 0.79883 | 126.42358 | 32797 ft | 477 kts | 282° |
| 2026-04-30 06:08 | 0.80578 | 126.39128 | 32221 ft | 473 kts | 282° |
| 2026-04-30 06:09 | 0.81036 | 126.37000 | 31848 ft | 471 kts | 282° |
| 2026-04-30 06:09 | 0.81720 | 126.33814 | 31294 ft | 467 kts | 282° |
| 2026-04-30 06:09 | 0.82395 | 126.30647 | 30738 ft | 464 kts | 282° |
| 2026-04-30 06:09 | 0.83067 | 126.27505 | 30183 ft | 461 kts | 282° |
| 2026-04-30 06:10 | 0.83735 | 126.24382 | 29600 ft | 458 kts | 282° |
| 2026-04-30 06:10 | 0.84398 | 126.21282 | 29058 ft | 453 kts | 282° |
| 2026-04-30 06:10 | 0.85055 | 126.18212 | 28540 ft | 449 kts | 282° |
| 2026-04-30 06:10 | 0.85703 | 126.15181 | 28023 ft | 444 kts | 282° |
| 2026-04-30 06:11 | 0.86346 | 126.12177 | 27514 ft | 440 kts | 282° |
| 2026-04-30 06:11 | 0.86979 | 126.09208 | 27032 ft | 435 kts | 282° |
| 2026-04-30 06:11 | 0.87606 | 126.06274 | 26555 ft | 431 kts | 282° |
| 2026-04-30 06:11 | 0.88229 | 126.03357 | 26088 ft | 427 kts | 282° |
| 2026-04-30 06:12 | 0.88847 | 126.00466 | 25619 ft | 423 kts | 282° |
| 2026-04-30 06:12 | 0.89462 | 125.97600 | 25138 ft | 420 kts | 282° |
| 2026-04-30 06:12 | 0.90076 | 125.94742 | 24675 ft | 418 kts | 282° |
| 2026-04-30 06:12 | 0.90679 | 125.91913 | 24192 ft | 416 kts | 282° |
| 2026-04-30 06:13 | 0.91269 | 125.89131 | 23714 ft | 414 kts | 282° |
| 2026-04-30 06:13 | 0.91867 | 125.86318 | 23164 ft | 414 kts | 282° |
| 2026-04-30 06:13 | 0.92462 | 125.83518 | 22662 ft | 411 kts | 282° |
| 2026-04-30 06:13 | 0.93055 | 125.80733 | 22160 ft | 408 kts | 282° |
| 2026-04-30 06:14 | 0.93646 | 125.77972 | 21667 ft | 406 kts | 282° |
| 2026-04-30 06:14 | 0.94235 | 125.75220 | 21244 ft | 401 kts | 282° |
| 2026-04-30 06:14 | 0.94816 | 125.72494 | 20771 ft | 399 kts | 282° |
| 2026-04-30 06:14 | 0.95392 | 125.69787 | 20269 ft | 398 kts | 281° |
| 2026-04-30 06:15 | 0.95960 | 125.67107 | 19783 ft | 396 kts | 281° |
| 2026-04-30 06:15 | 0.96529 | 125.64432 | 19467 ft | 389 kts | 281° |
| 2026-04-30 06:15 | 0.97090 | 125.61792 | 19032 ft | 387 kts | 282° |
| 2026-04-30 06:15 | 0.97646 | 125.59172 | 18611 ft | 384 kts | 282° |
| 2026-04-30 06:16 | 0.98197 | 125.56591 | 17940 ft | 377 kts | 282° |
| 2026-04-30 06:16 | 0.98744 | 125.54040 | 17197 ft | 370 kts | 282° |
| 2026-04-30 06:16 | 0.99270 | 125.51576 | 16737 ft | 360 kts | 282° |
| 2026-04-30 06:16 | 0.99792 | 125.49139 | 16263 ft | 355 kts | 282° |
| 2026-04-30 06:17 | 1.00305 | 125.46745 | 15805 ft | 350 kts | 282° |
| 2026-04-30 06:17 | 1.00812 | 125.44374 | 15349 ft | 346 kts | 282° |
| 2026-04-30 06:17 | 1.01313 | 125.42042 | 14892 ft | 342 kts | 282° |
| 2026-04-30 06:17 | 1.01807 | 125.39736 | 14460 ft | 338 kts | 282° |
| 2026-04-30 06:18 | 1.02295 | 125.37451 | 14020 ft | 334 kts | 282° |
| 2026-04-30 06:18 | 1.02772 | 125.35214 | 13586 ft | 332 kts | 282° |
| 2026-04-30 06:18 | 1.03250 | 125.32969 | 13123 ft | 329 kts | 282° |
| 2026-04-30 06:18 | 1.03723 | 125.30743 | 12696 ft | 327 kts | 282° |
| 2026-04-30 06:19 | 1.04196 | 125.28518 | 12339 ft | 325 kts | 282° |
| 2026-04-30 06:19 | 1.04664 | 125.26309 | 11929 ft | 325 kts | 282° |
| 2026-04-30 06:19 | 1.05130 | 125.24107 | 11506 ft | 324 kts | 282° |
| 2026-04-30 06:19 | 1.05598 | 125.21901 | 11090 ft | 324 kts | 282° |
| 2026-04-30 06:20 | 1.06068 | 125.19703 | 10669 ft | 324 kts | 282° |
| 2026-04-30 06:20 | 1.06540 | 125.17504 | 10243 ft | 323 kts | 282° |
| 2026-04-30 06:20 | 1.07006 | 125.15322 | 10005 ft | 316 kts | 282° |
| 2026-04-30 06:20 | 1.07404 | 125.13456 | 9887 ft | 307 kts | 282° |
| 2026-04-30 06:21 | 1.07829 | 125.11456 | 9590 ft | 303 kts | 282° |
| 2026-04-30 06:21 | 1.08270 | 125.09401 | 9234 ft | 300 kts | 282° |
| 2026-04-30 06:21 | 1.08711 | 125.07359 | 8841 ft | 299 kts | 282° |
| 2026-04-30 06:21 | 1.09144 | 125.05348 | 8454 ft | 297 kts | 282° |
| 2026-04-30 06:22 | 1.09576 | 125.03331 | 8116 ft | 294 kts | 282° |
| 2026-04-30 06:22 | 1.10003 | 125.01335 | 7722 ft | 292 kts | 282° |
| 2026-04-30 06:22 | 1.10578 | 124.99397 | 7325 ft | 291 kts | 296° |
| 2026-04-30 06:22 | 1.11704 | 124.97745 | 6941 ft | 288 kts | 315° |
| 2026-04-30 06:23 | 1.13282 | 124.96557 | 6544 ft | 286 kts | 333° |
| 2026-04-30 06:23 | 1.15122 | 124.95851 | 6156 ft | 284 kts | 341° |
| 2026-04-30 06:23 | 1.16979 | 124.95200 | 5840 ft | 278 kts | 341° |
| 2026-04-30 06:23 | 1.18768 | 124.94564 | 5722 ft | 266 kts | 341° |
| 2026-04-30 06:24 | 1.20470 | 124.93956 | 5601 ft | 253 kts | 341° |
| 2026-04-30 06:24 | 1.22089 | 124.93382 | 5495 ft | 242 kts | 341° |
| 2026-04-30 06:24 | 1.23664 | 124.92830 | 5396 ft | 239 kts | 341° |
| 2026-04-30 06:24 | 1.25232 | 124.92284 | 5299 ft | 236 kts | 341° |
| 2026-04-30 06:25 | 1.26743 | 124.91808 | 5196 ft | 225 kts | 352° |
| 2026-04-30 06:25 | 1.28271 | 124.91734 | 5039 ft | 217 kts | 2° |
| 2026-04-30 06:25 | 1.29750 | 124.91790 | 4886 ft | 207 kts | 4° |
| 2026-04-30 06:25 | 1.31099 | 124.91841 | 4705 ft | 199 kts | 3° |
| 2026-04-30 06:26 | 1.32036 | 124.91882 | 4571 ft | 188 kts | 3° |
| 2026-04-30 06:26 | 1.33282 | 124.91920 | 4479 ft | 170 kts | 3° |
| 2026-04-30 06:26 | 1.34425 | 124.91955 | 4311 ft | 160 kts | 3° |
| 2026-04-30 06:26 | 1.35525 | 124.91991 | 4117 ft | 156 kts | 4° |
| 2026-04-30 06:27 | 1.36598 | 124.92026 | 3904 ft | 154 kts | 4° |
| 2026-04-30 06:27 | 1.37675 | 124.92062 | 3701 ft | 153 kts | 4° |
| 2026-04-30 06:27 | 1.38735 | 124.92097 | 3497 ft | 151 kts | 4° |
| 2026-04-30 06:27 | 1.39772 | 124.92131 | 3286 ft | 148 kts | 3° |
| 2026-04-30 06:28 | 1.40796 | 124.92166 | 3078 ft | 147 kts | 3° |
| 2026-04-30 06:28 | 1.41811 | 124.92199 | 2876 ft | 146 kts | 3° |
| 2026-04-30 06:28 | 1.42820 | 124.92233 | 2672 ft | 144 kts | 4° |
| 2026-04-30 06:28 | 1.43816 | 124.92266 | 2473 ft | 143 kts | 3° |
| 2026-04-30 06:29 | 1.44811 | 124.92299 | 2269 ft | 143 kts | 4° |
| 2026-04-30 06:29 | 1.45801 | 124.92332 | 2069 ft | 143 kts | 3° |
| 2026-04-30 06:29 | 1.46798 | 124.92365 | 1866 ft | 144 kts | 4° |
| 2026-04-30 06:29 | 1.47789 | 124.92398 | 1660 ft | 143 kts | 2° |
| 2026-04-30 06:30 | 1.48778 | 124.92430 | 1453 ft | 143 kts | 2° |
| 2026-04-30 06:30 | 1.49772 | 124.92463 | 1236 ft | 142 kts | 4° |
| 2026-04-30 06:30 | 1.50742 | 124.92492 | 1071 ft | 140 kts | 2° |
| 2026-04-30 06:30 | 1.51729 | 124.92528 | 822 ft | 140 kts | 2° |
| 2026-04-30 06:31 | 1.52688 | 124.92561 | 618 ft | 139 kts | 2° |
| 2026-04-30 06:31 | 1.53653 | 124.92593 | 385 ft | 138 kts | 1° |
| 2026-04-30 06:31 | 1.54549 | 124.92618 | 337 ft | 113 kts | 2° |
| 2026-04-30 06:31 | 1.55079 | 124.92635 | 337 ft | 56 kts | 2° |
| 2026-04-30 06:32 | 1.55412 | 124.92646 | 338 ft | 24 kts | 2° |
| 2026-04-30 06:32 | 1.55570 | 124.92652 | 335 ft | 22 kts | 2° |
| 2026-04-30 06:32 | 1.55662 | 124.92575 | 336 ft | 20 kts | 273° |
| 2026-04-30 06:32 | 1.55647 | 124.92501 | 336 ft | 9 kts | 218° |
| 2026-04-30 06:33 | 1.55592 | 124.92488 | 336 ft | 8 kts | 183° |
| 2026-04-30 06:33 | 1.55543 | 124.92487 | 336 ft | 8 kts | 181° |
| 2026-04-30 06:33 | 1.55474 | 124.92485 | 336 ft | 12 kts | 181° |
| 2026-04-30 06:33 | 1.55378 | 124.92482 | 334 ft | 13 kts | 182° |
| 2026-04-30 06:34 | 1.55289 | 124.92478 | 335 ft | 13 kts | 182° |
| 2026-04-30 06:34 | 1.55178 | 124.92474 | 336 ft | 18 kts | 182° |
| 2026-04-30 06:34 | 1.55032 | 124.92469 | 336 ft | 23 kts | 182° |
| 2026-04-30 06:34 | 1.54873 | 124.92463 | 336 ft | 22 kts | 181° |
| 2026-04-30 06:35 | 1.54723 | 124.92459 | 333 ft | 21 kts | 181° |
| 2026-04-30 06:35 | 1.54572 | 124.92454 | 335 ft | 22 kts | 180° |
| 2026-04-30 06:35 | 1.54452 | 124.92451 | 336 ft | 6 kts | 182° |
| 2026-04-30 06:35 | 1.54413 | 124.92443 | 336 ft | 6 kts | 206° |
| 2026-04-30 06:36 | 1.54377 | 124.92426 | 335 ft | 6 kts | 201° |
| 2026-04-30 06:36 | 1.54366 | 124.92422 | 334 ft | 1 kts | 207° |
| 2026-04-30 06:36 | 1.54366 | 124.92420 | 334 ft | 0 kts | 225° |
| 2026-04-30 06:36 | 1.54361 | 124.92406 | 335 ft | 5 kts | 256° |
| 2026-04-30 06:37 | 1.54354 | 124.92357 | 336 ft | 8 kts | 262° |
| 2026-04-30 06:37 | 1.54352 | 124.92340 | 336 ft | 1 kts | 262° |
| 2026-04-30 06:37 | 1.54351 | 124.92336 | 336 ft | 0 kts | 262° |